createdAt,value
2018-03-08T00:01:02.451Z,57.80
2018-03-08T00:03:30.775Z,58.20
2018-03-08T00:05:59.014Z,58.00
2018-03-08T00:08:27.307Z,57.00
2018-03-08T00:10:56.527Z,58.90
2018-03-08T00:13:25.808Z,58.40
2018-03-08T00:15:54.091Z,58.50
2018-03-08T00:18:23.132Z,58.70
2018-03-08T00:20:51.415Z,58.70
2018-03-08T00:23:20.464Z,58.30
2018-03-08T00:25:49.477Z,57.90
2018-03-08T00:28:17.714Z,57.90
2018-03-08T00:30:46.771Z,57.90
2018-03-08T00:33:15.060Z,57.70
2018-03-08T00:35:43.325Z,58.60
2018-03-08T00:38:11.561Z,57.60
2018-03-08T00:40:39.875Z,57.70
2018-03-08T00:43:08.118Z,57.80
2018-03-08T00:45:36.401Z,58.00
2018-03-08T00:48:04.646Z,58.40
2018-03-08T00:50:32.888Z,58.10
2018-03-08T00:53:01.183Z,58.30
2018-03-08T00:55:29.408Z,58.40
2018-03-08T00:57:57.669Z,57.40
2018-03-08T01:00:26.713Z,58.00
2018-03-08T01:02:55.007Z,58.00
2018-03-08T01:05:23.283Z,58.40
2018-03-08T01:07:51.547Z,58.00
2018-03-08T01:10:19.847Z,57.60
2018-03-08T01:12:48.112Z,58.40
2018-03-08T01:15:16.355Z,57.40
2018-03-08T01:17:44.626Z,58.30
2018-03-08T01:20:12.927Z,58.20
2018-03-08T01:22:41.162Z,58.20
2018-03-08T01:25:09.458Z,57.60
2018-03-08T01:27:37.694Z,58.20
2018-03-08T01:30:05.950Z,57.60
2018-03-08T01:32:34.234Z,58.60
2018-03-08T01:35:02.530Z,58.80
2018-03-08T01:37:30.810Z,58.60
2018-03-08T01:39:59.815Z,58.90
2018-03-08T01:42:28.043Z,58.50
2018-03-08T01:44:56.349Z,58.80
2018-03-08T01:47:24.623Z,59.50
2018-03-08T01:49:53.703Z,58.90
2018-03-08T01:52:22.034Z,58.90
2018-03-08T01:54:50.286Z,58.40
2018-03-08T01:57:18.577Z,59.30
2018-03-08T01:59:47.572Z,59.50
2018-03-08T02:02:16.530Z,59.50
2018-03-08T02:04:44.765Z,58.80
2018-03-08T02:07:13.062Z,59.60
2018-03-08T02:09:41.338Z,59.50
2018-03-08T02:12:09.629Z,58.60
2018-03-08T02:14:37.907Z,58.80
2018-03-08T02:17:06.716Z,59.00
2018-03-08T02:19:34.975Z,59.20
2018-03-08T02:22:03.273Z,59.10
2018-03-08T02:24:31.517Z,58.50
2018-03-08T02:26:59.808Z,58.10
2018-03-08T02:29:28.092Z,58.80
2018-03-08T02:31:56.398Z,58.20
2018-03-08T02:34:24.633Z,57.90
2018-03-08T02:36:52.911Z,58.40
2018-03-08T02:39:21.201Z,58.20
2018-03-08T02:41:49.475Z,58.30
2018-03-08T02:44:17.765Z,57.90
2018-03-08T02:46:46.042Z,57.90
2018-03-08T02:49:14.328Z,59.60
2018-03-08T02:51:43.337Z,59.40
2018-03-08T02:54:11.629Z,59.40
2018-03-08T02:56:39.867Z,58.60
2018-03-08T02:59:08.130Z,58.50
2018-03-08T03:01:36.405Z,58.70
2018-03-08T03:04:04.696Z,58.50
2018-03-08T03:06:33.723Z,59.70
2018-03-08T03:09:02.035Z,59.70
2018-03-08T03:11:30.262Z,60.10
2018-03-08T03:13:59.299Z,59.30
2018-03-08T03:16:27.544Z,59.20
2018-03-08T03:18:55.785Z,59.10
2018-03-08T03:21:24.081Z,59.20
2018-03-08T03:23:53.099Z,59.20
2018-03-08T03:26:21.340Z,59.20
2018-03-08T03:28:49.582Z,59.20
2018-03-08T03:31:17.885Z,59.40
2018-03-08T03:33:46.113Z,59.00
2018-03-08T03:36:14.361Z,59.20
2018-03-08T03:38:43.411Z,59.00
2018-03-08T03:41:11.681Z,59.00
2018-03-08T03:43:39.914Z,59.70
2018-03-08T03:46:08.920Z,59.80
2018-03-08T03:48:37.188Z,59.70
2018-03-08T03:51:05.466Z,59.90
2018-03-08T03:53:33.759Z,60.70
2018-03-08T03:56:02.032Z,60.60
2018-03-08T03:58:30.305Z,60.30
2018-03-08T04:01:01.972Z,60.00
2018-03-08T04:03:30.219Z,59.90
2018-03-08T04:05:59.229Z,60.50
2018-03-08T04:08:28.293Z,59.90
2018-03-08T04:10:56.578Z,59.90
2018-03-08T04:13:24.818Z,59.90
2018-03-08T04:15:53.110Z,60.20
2018-03-08T04:18:21.393Z,59.80
2018-03-08T04:20:49.695Z,59.80
2018-03-08T04:23:17.935Z,59.40
2018-03-08T04:25:46.194Z,59.70
2018-03-08T04:28:14.446Z,59.70
2018-03-08T04:30:42.722Z,59.50
2018-03-08T04:33:11.023Z,59.30
2018-03-08T04:35:39.249Z,59.50
2018-03-08T04:38:08.320Z,60.40
2018-03-08T04:40:36.588Z,59.70
2018-03-08T04:43:04.826Z,59.40
2018-03-08T04:45:33.110Z,59.80
2018-03-08T04:48:01.396Z,60.20
2018-03-08T04:50:29.669Z,60.50
2018-03-08T04:52:57.907Z,60.50
2018-03-08T04:55:26.914Z,60.30
2018-03-08T04:57:55.918Z,60.80
2018-03-08T05:00:24.162Z,61.50
2018-03-08T05:02:52.460Z,60.20
2018-03-08T05:05:20.688Z,60.40
2018-03-08T05:07:48.959Z,60.40
2018-03-08T05:10:17.201Z,60.50
2018-03-08T05:12:45.429Z,60.90
2018-03-08T05:15:13.742Z,60.00
2018-03-08T05:17:42.785Z,60.20
2018-03-08T05:20:11.096Z,60.20
2018-03-08T05:22:40.120Z,61.20
2018-03-08T05:25:08.455Z,61.20
2018-03-08T05:27:36.689Z,62.60
2018-03-08T05:30:04.936Z,61.80
2018-03-08T05:32:33.999Z,62.80
2018-03-08T05:35:02.269Z,62.70
2018-03-08T05:37:30.516Z,62.90
2018-03-08T05:39:58.831Z,63.10
2018-03-08T05:42:27.140Z,62.20
2018-03-08T05:44:55.375Z,63.60
2018-03-08T05:47:23.646Z,63.60
2018-03-08T05:49:51.883Z,63.50
2018-03-08T05:52:20.196Z,65.00
2018-03-08T05:54:48.434Z,64.40
2018-03-08T05:57:16.737Z,64.70
2018-03-08T05:59:44.973Z,64.00
2018-03-08T06:02:13.259Z,65.20
2018-03-08T06:04:42.259Z,65.30
2018-03-08T06:07:11.269Z,65.20
2018-03-08T06:09:39.514Z,65.10
2018-03-08T06:12:08.530Z,65.40
2018-03-08T06:14:37.601Z,65.40
2018-03-08T06:17:05.872Z,65.40
2018-03-08T06:19:34.168Z,65.10
2018-03-08T06:22:03.332Z,65.20
2018-03-08T06:24:31.592Z,65.20
2018-03-08T06:26:59.825Z,65.30
2018-03-08T06:29:28.101Z,65.40
2018-03-08T06:31:57.115Z,66.50
2018-03-08T06:34:25.424Z,66.50
2018-03-08T06:36:53.666Z,65.10
2018-03-08T06:39:21.893Z,65.90
2018-03-08T06:41:50.181Z,66.20
2018-03-08T06:44:18.456Z,65.90
2018-03-08T06:46:46.769Z,65.50
2018-03-08T06:49:15.820Z,65.20
2018-03-08T06:51:44.103Z,65.20
2018-03-08T06:54:12.385Z,64.90
2018-03-08T06:56:40.642Z,65.10
2018-03-08T06:59:08.881Z,65.30
2018-03-08T07:01:37.188Z,64.50
2018-03-08T07:04:05.434Z,65.30
2018-03-08T07:06:33.744Z,64.40
2018-03-08T07:09:02.062Z,65.10
2018-03-08T07:11:30.296Z,64.10
2018-03-08T07:13:58.541Z,64.00
2018-03-08T07:16:26.787Z,64.10
2018-03-08T07:18:55.072Z,63.60
2018-03-08T07:21:24.114Z,63.00
2018-03-08T07:23:52.416Z,62.90
2018-03-08T07:26:20.645Z,62.60
2018-03-08T07:28:48.951Z,62.20
2018-03-08T07:31:17.229Z,62.20
2018-03-08T07:33:45.482Z,62.30
2018-03-08T07:36:13.768Z,62.50
2018-03-08T07:38:42.111Z,62.10
2018-03-08T07:41:11.139Z,61.30
2018-03-08T07:43:39.445Z,61.30
2018-03-08T07:46:07.707Z,61.30
2018-03-08T07:48:35.955Z,61.20
2018-03-08T07:51:04.205Z,61.00
2018-03-08T07:53:32.485Z,60.70
2018-03-08T07:56:00.789Z,60.60
2018-03-08T07:58:29.067Z,60.70
2018-03-08T08:00:57.325Z,60.50
2018-03-08T08:03:26.392Z,60.40
2018-03-08T08:06:06.533Z,60.30
2018-03-08T08:11:37.375Z,59.80
2018-03-08T08:14:05.610Z,59.80
2018-03-08T08:16:34.699Z,59.70
2018-03-08T08:19:03.703Z,59.50
2018-03-08T08:21:32.701Z,59.80
2018-03-08T08:24:01.004Z,59.70
2018-03-08T08:26:29.286Z,59.30
2018-03-08T08:28:57.534Z,59.50
2018-03-08T08:31:25.816Z,59.50
2018-03-08T08:33:54.097Z,59.10
2018-03-08T08:36:22.324Z,59.30
2018-03-08T08:38:50.646Z,59.40
2018-03-08T08:41:19.646Z,59.30
2018-03-08T08:43:47.885Z,59.30
2018-03-08T08:46:16.141Z,59.10
2018-03-08T08:48:44.401Z,59.20
2018-03-08T08:51:12.693Z,59.20
2018-03-08T08:53:40.958Z,59.40
2018-03-08T08:56:09.280Z,59.40
2018-03-08T08:58:37.510Z,59.50
2018-03-08T09:01:05.750Z,59.60
2018-03-08T09:03:34.009Z,59.90
2018-03-08T09:06:03.000Z,59.90
2018-03-08T09:08:32.051Z,60.40
2018-03-08T09:11:00.332Z,60.40
2018-03-08T09:13:28.629Z,61.10
2018-03-08T09:15:56.852Z,60.90
2018-03-08T09:18:25.106Z,61.50
2018-03-08T09:20:54.133Z,60.40
2018-03-08T09:23:22.398Z,60.40
2018-03-08T09:25:50.641Z,60.90
2018-03-08T09:28:18.880Z,60.90
2018-03-08T09:30:47.303Z,60.70
2018-03-08T09:33:15.591Z,60.70
2018-03-08T09:35:43.891Z,60.90
2018-03-08T09:38:12.126Z,60.90
2018-03-08T09:40:40.414Z,60.40
2018-03-08T09:43:08.698Z,60.30
2018-03-08T09:45:36.926Z,60.20
2018-03-08T09:48:05.171Z,59.80
2018-03-08T09:50:33.452Z,59.70
2018-03-08T09:53:01.701Z,59.90
2018-03-08T09:55:30.713Z,59.00
2018-03-08T09:57:58.969Z,59.00
2018-03-08T10:00:27.206Z,59.70
2018-03-08T10:02:56.125Z,59.90
2018-03-08T10:05:24.355Z,60.00
2018-03-08T10:07:52.590Z,59.50
2018-03-08T10:10:20.838Z,59.80
2018-03-08T10:12:49.905Z,58.70
2018-03-08T10:15:18.882Z,58.40
2018-03-08T10:17:47.173Z,58.40
2018-03-08T10:20:15.450Z,57.90
2018-03-08T10:22:43.755Z,57.60
2018-03-08T10:25:11.952Z,58.30
2018-03-08T10:27:40.240Z,58.50
2018-03-08T10:30:08.506Z,58.80
2018-03-08T10:32:36.816Z,59.30
2018-03-08T10:35:05.872Z,58.20
2018-03-08T10:37:34.109Z,58.10
2018-03-08T10:40:02.417Z,58.30
2018-03-08T10:44:59.164Z,56.60
2018-03-08T10:47:27.466Z,56.50
2018-03-08T10:49:55.752Z,55.80
2018-03-08T10:52:24.047Z,55.40
2018-03-08T10:54:53.098Z,54.10
2018-03-08T10:57:21.380Z,54.10
2018-03-08T10:59:49.621Z,55.20
2018-03-08T11:02:38.395Z,55.10
2018-03-08T11:05:06.634Z,54.10
2018-03-08T11:07:34.881Z,55.20
2018-03-08T11:10:03.147Z,55.90
2018-03-08T11:12:31.391Z,56.30
2018-03-08T11:14:59.687Z,56.30
2018-03-08T11:17:27.931Z,56.40
2018-03-08T11:19:56.260Z,56.30
2018-03-08T11:22:24.533Z,56.10
2018-03-08T11:24:52.778Z,55.70
2018-03-08T11:27:21.085Z,55.00
2018-03-08T11:29:54.532Z,56.60
2018-03-08T11:32:22.864Z,53.70
2018-03-08T11:34:51.153Z,52.80
2018-03-08T11:37:19.445Z,50.40
2018-03-08T11:39:48.480Z,48.40
2018-03-08T11:42:16.809Z,48.40
2018-03-08T11:44:45.333Z,50.50
2018-03-08T11:47:13.613Z,49.40
2018-03-08T11:49:41.861Z,48.10
2018-03-08T11:52:10.935Z,46.70
2018-03-08T11:54:39.223Z,46.70
2018-03-08T11:57:08.234Z,45.70
2018-03-08T11:59:37.287Z,46.10
2018-03-08T12:02:05.521Z,46.20
2018-03-08T12:04:33.805Z,47.70
2018-03-08T12:07:02.088Z,48.30
2018-03-08T12:09:30.404Z,45.80
2018-03-08T12:11:58.666Z,45.80
2018-03-08T12:14:26.890Z,47.60
2018-03-08T12:16:55.934Z,48.00
2018-03-08T12:19:24.162Z,48.10
2018-03-08T12:21:53.201Z,48.60
2018-03-08T12:24:21.444Z,48.50
2018-03-08T12:26:49.723Z,48.50
2018-03-08T12:29:18.014Z,49.70
2018-03-08T12:31:46.245Z,49.50
2018-03-08T12:34:14.544Z,50.70
2018-03-08T12:36:43.613Z,49.50
2018-03-08T12:39:11.932Z,49.40
2018-03-08T12:41:40.212Z,48.00
2018-03-08T12:44:08.443Z,43.70
2018-03-08T12:46:36.747Z,46.10
2018-03-08T12:49:05.755Z,44.70
2018-03-08T12:51:34.019Z,44.80
2018-03-08T12:54:03.021Z,49.70
2018-03-08T12:56:31.378Z,49.70
2018-03-08T12:59:00.425Z,46.60
2018-03-08T13:01:28.702Z,46.50
2018-03-08T13:03:56.980Z,45.90
2018-03-08T13:06:25.216Z,43.50
2018-03-08T13:08:53.480Z,43.20
2018-03-08T13:11:22.524Z,35.30
2018-03-08T13:13:50.786Z,35.40
2018-03-08T13:16:19.369Z,36.20
2018-03-08T13:18:48.057Z,40.80
2018-03-08T13:21:16.363Z,42.00
2018-03-08T13:23:44.643Z,40.80
2018-03-08T13:26:12.909Z,40.60
2018-03-08T13:28:41.161Z,43.10
2018-03-08T13:31:09.416Z,41.40
2018-03-08T13:33:38.464Z,40.00
2018-03-08T13:36:06.737Z,40.00
2018-03-08T13:38:35.029Z,38.00
2018-03-08T13:41:03.266Z,41.90
2018-03-08T13:43:31.564Z,41.60
2018-03-08T13:45:59.864Z,34.10
2018-03-08T13:48:28.851Z,36.40
2018-03-08T13:50:57.125Z,35.90
2018-03-08T13:53:25.424Z,36.10
2018-03-08T13:55:53.671Z,33.60
2018-03-08T13:58:22.644Z,37.50
2018-03-08T14:00:50.897Z,37.00
2018-03-08T14:03:20.001Z,35.60
2018-03-08T14:05:48.999Z,40.30
2018-03-08T14:08:17.291Z,40.30
2018-03-08T14:10:45.543Z,37.10
2018-03-08T14:13:13.843Z,37.80
2018-03-08T14:15:42.096Z,38.50
2018-03-08T14:18:11.110Z,39.20
2018-03-08T14:20:39.361Z,39.00
2018-03-08T14:23:08.384Z,37.40
2018-03-08T14:25:36.765Z,37.20
2018-03-08T14:28:05.046Z,36.20
2018-03-08T14:30:33.299Z,37.30
2018-03-08T14:33:02.333Z,36.00
2018-03-08T14:35:30.621Z,36.10
2018-03-08T14:37:58.956Z,34.80
2018-03-08T14:40:27.243Z,34.30
2018-03-08T14:42:55.549Z,35.10
2018-03-08T14:45:23.813Z,35.70
2018-03-08T14:47:52.151Z,37.10
2018-03-08T14:50:20.443Z,36.20
2018-03-08T14:52:48.727Z,34.30
2018-03-08T14:55:17.753Z,35.20
2018-03-08T14:57:46.793Z,35.50
2018-03-08T15:00:15.808Z,38.40
2018-03-08T15:02:44.046Z,38.30
2018-03-08T15:05:12.301Z,36.10
2018-03-08T15:07:40.553Z,33.50
2018-03-08T15:10:09.209Z,37.30
2018-03-08T15:12:38.259Z,36.50
2018-03-08T15:15:06.564Z,36.50
2018-03-08T15:17:34.866Z,37.10
2018-03-08T15:20:03.920Z,37.40
2018-03-08T15:22:32.216Z,37.30
2018-03-08T15:25:00.503Z,38.00
2018-03-08T15:27:29.581Z,37.80
2018-03-08T15:29:58.581Z,37.90
2018-03-08T15:32:27.610Z,35.70
2018-03-08T15:34:56.622Z,35.70
2018-03-08T15:37:24.854Z,36.80
2018-03-08T15:39:53.928Z,37.60
2018-03-08T15:42:22.174Z,37.60
2018-03-08T15:44:50.455Z,37.70
2018-03-08T15:47:18.696Z,37.90
2018-03-08T15:49:47.001Z,37.40
2018-03-08T15:52:15.241Z,38.90
2018-03-08T15:54:44.297Z,37.20
2018-03-08T15:57:12.550Z,37.20
2018-03-08T15:59:40.826Z,37.50
2018-03-08T16:02:09.127Z,37.30
2018-03-08T16:04:37.365Z,38.50
2018-03-08T16:07:17.364Z,39.20
2018-03-08T16:10:09.458Z,38.80
2018-03-08T16:12:37.727Z,38.50
2018-03-08T16:15:06.008Z,39.00
2018-03-08T16:17:34.311Z,38.80
2018-03-08T16:20:02.591Z,39.20
2018-03-08T16:22:30.833Z,38.90
2018-03-08T16:24:59.149Z,39.20
2018-03-08T16:27:27.435Z,39.20
2018-03-08T16:29:55.696Z,39.60
2018-03-08T16:32:23.979Z,40.10
2018-03-08T16:34:52.383Z,40.00
2018-03-08T16:37:20.631Z,40.30
2018-03-08T16:39:48.889Z,40.50
2018-03-08T16:42:23.513Z,40.60
2018-03-08T16:44:51.818Z,40.80
2018-03-08T16:47:20.789Z,41.10
2018-03-08T16:49:49.085Z,41.20
2018-03-08T16:52:17.874Z,41.40
2018-03-08T16:54:46.163Z,41.30
2018-03-08T16:57:14.441Z,41.40
2018-03-08T16:59:42.746Z,41.50
2018-03-08T17:02:11.049Z,41.40
2018-03-08T17:04:39.352Z,41.70
2018-03-08T17:07:07.611Z,41.80
2018-03-08T17:09:36.733Z,42.10
2018-03-08T17:12:04.979Z,42.10
2018-03-08T17:14:33.276Z,42.20
2018-03-08T17:17:02.265Z,42.30
2018-03-08T17:19:30.558Z,42.30
2018-03-08T17:21:58.867Z,42.30
2018-03-08T17:24:27.114Z,42.30
2018-03-08T17:26:55.426Z,42.40
2018-03-08T17:29:23.666Z,42.70
2018-03-08T17:31:51.924Z,42.70
2018-03-08T17:34:20.187Z,43.40
2018-03-08T17:36:48.436Z,43.60
2018-03-08T17:39:16.733Z,43.70
2018-03-08T17:41:45.770Z,43.70
2018-03-08T17:44:14.152Z,43.80
2018-03-08T17:46:42.436Z,43.90
2018-03-08T17:49:10.687Z,43.90
2018-03-08T17:51:38.940Z,44.10
2018-03-08T17:54:07.215Z,44.10
2018-03-08T17:56:36.269Z,44.20
2018-03-08T17:59:04.618Z,44.20
2018-03-08T18:01:32.874Z,44.30
2018-03-08T18:04:01.202Z,44.40
2018-03-08T18:06:29.498Z,44.50
2018-03-08T18:08:57.791Z,44.60
2018-03-08T18:11:26.816Z,44.70
2018-03-08T18:13:55.082Z,44.70
2018-03-08T18:16:23.380Z,44.70
2018-03-08T18:18:52.633Z,45.10
2018-03-08T18:21:20.921Z,45.10
2018-03-08T18:23:52.136Z,45.50
2018-03-08T18:26:20.413Z,45.40
2018-03-08T18:28:48.671Z,45.60
2018-03-08T18:31:16.965Z,45.70
2018-03-08T18:33:45.246Z,45.70
2018-03-08T18:36:13.562Z,46.00
2018-03-08T18:38:42.702Z,46.20
2018-03-08T18:41:10.986Z,46.20
2018-03-08T18:43:39.283Z,46.40
2018-03-08T18:46:07.584Z,46.20
2018-03-08T18:48:36.608Z,46.60
2018-03-08T18:51:04.855Z,46.60
2018-03-08T18:53:33.885Z,46.40
2018-03-08T18:56:02.210Z,46.50
2018-03-08T18:58:30.490Z,46.60
2018-03-08T19:00:58.773Z,46.60
2018-03-08T19:03:27.044Z,46.50
2018-03-08T19:05:55.310Z,46.40
2018-03-08T19:08:23.592Z,46.50
2018-03-08T19:10:51.877Z,46.80
2018-03-08T19:13:20.172Z,46.50
2018-03-08T19:15:49.199Z,46.70
2018-03-08T19:18:17.509Z,46.60
2018-03-08T19:20:45.798Z,46.70
2018-03-08T19:23:14.098Z,46.60
2018-03-08T19:25:42.408Z,46.70
2018-03-08T19:28:10.665Z,47.00
2018-03-08T19:30:39.662Z,47.00
2018-03-08T19:33:07.982Z,47.00
2018-03-08T19:35:36.217Z,46.80
2018-03-08T19:38:04.549Z,46.90
2018-03-08T19:40:32.777Z,47.40
2018-03-08T19:43:01.038Z,47.20
2018-03-08T19:45:30.089Z,47.40
2018-03-08T19:47:58.354Z,47.50
2018-03-08T19:50:27.584Z,47.20
2018-03-08T19:52:55.900Z,47.40
2018-03-08T19:55:24.186Z,47.50
2018-03-08T19:57:53.206Z,47.30
2018-03-08T20:00:21.467Z,47.30
2018-03-08T20:02:49.725Z,47.50
2018-03-08T20:05:17.999Z,47.50
2018-03-08T20:07:46.291Z,47.70
2018-03-08T20:10:14.524Z,47.80
2018-03-08T20:12:43.601Z,47.80
2018-03-08T20:15:11.889Z,47.80
2018-03-08T20:17:40.205Z,48.00
2018-03-08T20:20:08.497Z,48.10
2018-03-08T20:22:36.800Z,48.70
2018-03-08T20:25:05.038Z,47.90
2018-03-08T20:27:33.335Z,48.10
2018-03-08T20:30:02.361Z,48.10
2018-03-08T20:32:30.602Z,48.20
2018-03-08T20:34:58.898Z,48.20
2018-03-08T20:37:27.160Z,48.10
2018-03-08T20:39:56.236Z,48.00
2018-03-08T20:42:24.511Z,47.90
2018-03-08T20:44:53.570Z,48.10
2018-03-08T20:47:21.898Z,48.20
2018-03-08T20:49:50.226Z,48.90
2018-03-08T20:52:19.453Z,48.50
2018-03-08T20:54:48.462Z,48.40
2018-03-08T20:57:16.785Z,48.40
2018-03-08T20:59:45.063Z,48.50
2018-03-08T21:02:13.355Z,48.50
2018-03-08T21:04:41.601Z,48.60
2018-03-08T21:07:09.898Z,48.60
2018-03-08T21:09:38.183Z,48.60
2018-03-08T21:12:06.426Z,48.30
2018-03-08T21:14:34.676Z,49.00
2018-03-08T21:17:02.925Z,48.40
2018-03-08T21:19:31.177Z,48.30
2018-03-08T21:21:59.476Z,48.40
2018-03-08T21:24:27.763Z,48.10
2018-03-08T21:26:56.819Z,48.10
2018-03-08T21:29:25.076Z,48.00
2018-03-08T21:31:54.221Z,48.30
2018-03-08T21:34:23.390Z,48.70
2018-03-08T21:36:51.621Z,48.00
2018-03-08T21:39:19.870Z,48.00
2018-03-08T21:41:48.174Z,47.70
2018-03-08T21:44:17.187Z,47.70
2018-03-08T21:46:45.449Z,47.70
2018-03-08T21:49:13.728Z,47.60
2018-03-08T21:51:42.024Z,47.50
2018-03-08T21:54:10.305Z,47.50
2018-03-08T21:56:38.570Z,47.60
2018-03-08T21:59:06.820Z,47.60
2018-03-08T22:01:35.874Z,48.00
2018-03-08T22:04:04.198Z,48.60
2018-03-08T22:06:33.200Z,50.40
2018-03-08T22:09:01.460Z,50.50
2018-03-08T22:11:30.509Z,52.80
2018-03-08T22:13:58.760Z,52.80
2018-03-08T22:16:27.042Z,52.90
2018-03-08T22:18:55.633Z,52.30
2018-03-08T22:21:23.897Z,52.60
2018-03-08T22:23:52.137Z,53.40
2018-03-08T22:26:21.208Z,52.90
2018-03-08T22:28:49.458Z,52.90
2018-03-08T22:31:17.729Z,52.70
2018-03-08T22:33:46.019Z,52.50
2018-03-08T22:36:14.290Z,52.50
2018-03-08T22:38:42.580Z,52.30
2018-03-08T22:41:10.852Z,51.90
2018-03-08T22:43:39.169Z,52.40
2018-03-08T22:46:07.440Z,53.00
2018-03-08T22:48:35.694Z,52.90
2018-03-08T22:51:03.957Z,53.00
2018-03-08T22:53:32.269Z,53.50
2018-03-08T22:56:00.548Z,53.40
2018-03-08T22:58:28.837Z,53.60
2018-03-08T23:00:57.886Z,54.40
2018-03-08T23:03:30.778Z,53.60
2018-03-08T23:05:59.064Z,53.70
2018-03-08T23:08:27.291Z,54.70
2018-03-08T23:10:55.553Z,54.00
2018-03-08T23:13:24.562Z,54.00
2018-03-08T23:15:53.593Z,54.20
2018-03-08T23:18:21.877Z,54.10
2018-03-08T23:20:50.170Z,54.70
2018-03-08T23:23:18.453Z,55.50
2018-03-08T23:25:46.728Z,55.70
2018-03-08T23:28:14.988Z,55.80
2018-03-08T23:30:43.257Z,55.40
2018-03-08T23:33:11.510Z,55.80
2018-03-08T23:35:39.796Z,54.90
2018-03-08T23:38:08.102Z,55.50
2018-03-08T23:40:36.347Z,56.40
2018-03-08T23:43:04.644Z,57.00
2018-03-08T23:45:32.903Z,57.00
2018-03-08T23:48:01.196Z,56.10
2018-03-08T23:50:29.497Z,56.40
2018-03-08T23:52:57.745Z,57.70
2018-03-08T23:55:26.056Z,58.40
2018-03-08T23:57:54.329Z,56.40
